createdAt,value
2022-11-10T00:05:19.192Z,1.00
2022-11-10T00:10:51.218Z,0.00
2022-11-10T00:16:23.268Z,0.00
2022-11-10T00:21:55.025Z,1.00
2022-11-10T00:27:26.716Z,0.00
2022-11-10T00:32:58.567Z,1.00
2022-11-10T00:38:30.433Z,0.00
2022-11-10T00:44:01.990Z,1.00
2022-11-10T00:49:33.962Z,1.00
2022-11-10T00:55:05.644Z,1.00
2022-11-10T01:00:37.353Z,1.00
2022-11-10T01:06:09.199Z,0.00
2022-11-10T01:11:41.024Z,0.00
2022-11-10T01:17:12.614Z,0.00
2022-11-10T01:28:16.067Z,0.00
2022-11-10T01:33:47.699Z,1.00
2022-11-10T01:39:19.414Z,1.00
2022-11-10T01:44:50.954Z,0.00
2022-11-10T01:50:22.882Z,1.00
2022-11-10T01:55:54.607Z,1.00
2022-11-10T02:01:26.102Z,0.00
2022-11-10T02:06:57.973Z,0.00
2022-11-10T02:12:29.615Z,0.00
2022-11-10T02:18:01.338Z,0.00
2022-11-10T02:23:33.347Z,0.00
2022-11-10T02:29:05.377Z,1.00
2022-11-10T02:34:37.332Z,1.00
2022-11-10T02:40:09.033Z,1.00
2022-11-10T02:45:40.673Z,0.00
2022-11-10T02:51:12.473Z,1.00
2022-11-10T02:56:44.444Z,1.00
2022-11-10T03:02:16.060Z,0.00
2022-11-10T03:07:47.917Z,1.00
2022-11-10T03:13:19.930Z,1.00
2022-11-10T03:18:51.577Z,0.00
2022-11-10T03:24:23.323Z,65535.00
2022-11-10T03:29:55.056Z,1.00
2022-11-10T03:35:26.953Z,0.00
2022-11-10T03:46:30.399Z,1.00
2022-11-10T03:52:02.208Z,0.00
2022-11-10T03:57:33.717Z,0.00
2022-11-10T04:03:05.502Z,0.00
2022-11-10T04:08:37.608Z,0.00
2022-11-10T04:14:09.530Z,1.00
2022-11-10T04:19:41.521Z,1.00
2022-11-10T04:25:13.288Z,0.00
2022-11-10T04:30:45.179Z,1.00
2022-11-10T04:36:16.865Z,1.00
2022-11-10T04:41:48.717Z,0.00
2022-11-10T04:47:20.906Z,1.00
2022-11-10T04:52:52.792Z,1.00
2022-11-10T04:58:24.563Z,1.00
2022-11-10T05:03:56.758Z,1.00
2022-11-10T05:09:28.555Z,1.00
2022-11-10T05:15:00.388Z,1.00
2022-11-10T05:20:32.834Z,1.00
2022-11-10T05:26:04.842Z,0.00
2022-11-10T05:31:36.916Z,1.00
2022-11-10T05:37:08.988Z,0.00
2022-11-10T05:42:41.173Z,3.00
2022-11-10T05:48:13.341Z,5.00
2022-11-10T05:50:36.702Z,7.00
2022-11-10T06:01:40.280Z,53.00
2022-11-10T06:07:12.275Z,103.00
2022-11-10T06:12:44.913Z,164.00
2022-11-10T06:18:15.962Z,219.00
2022-11-10T06:23:47.967Z,299.00
2022-11-10T06:29:25.558Z,419.00
2022-11-10T06:34:52.851Z,700.00
2022-11-10T06:40:23.595Z,1044.00
2022-11-10T06:45:55.341Z,1272.00
2022-11-10T06:51:26.865Z,1825.00
2022-11-10T06:56:58.839Z,2478.00
2022-11-10T07:02:30.443Z,2770.00
2022-11-10T07:08:02.224Z,3005.00
2022-11-10T07:13:34.094Z,3294.00
2022-11-10T07:19:05.788Z,5337.00
2022-11-10T07:24:38.043Z,6344.00
2022-11-10T07:30:10.111Z,6552.00
2022-11-10T07:35:41.692Z,7549.00
2022-11-10T07:41:13.252Z,8782.00
2022-11-10T07:46:45.184Z,7696.00
2022-11-10T07:52:17.009Z,8790.00
2022-11-10T07:57:48.743Z,8624.00
2022-11-10T08:03:21.056Z,12128.00
2022-11-10T08:08:52.508Z,20980.00
2022-11-10T08:14:24.379Z,23379.00
2022-11-10T08:19:56.158Z,23565.00
2022-11-10T08:25:31.726Z,13418.00
2022-11-10T08:31:04.311Z,18045.00
2022-11-10T08:36:31.443Z,15428.00
2022-11-10T08:42:02.872Z,14806.00
2022-11-10T08:47:34.621Z,14058.00
2022-11-10T08:53:12.475Z,13678.00
2022-11-10T08:58:52.768Z,13486.00
2022-11-10T09:04:15.932Z,11958.00
2022-11-10T09:10:06.018Z,15769.00
2022-11-10T09:15:19.442Z,19923.00
2022-11-10T09:20:57.264Z,24828.00
2022-11-10T09:26:29.581Z,19382.00
2022-11-10T09:32:01.293Z,22902.00
2022-11-10T09:37:38.937Z,19175.00
2022-11-10T09:43:16.467Z,19934.00
2022-11-10T09:48:48.484Z,19622.00
2022-11-10T09:54:26.425Z,20594.00
2022-11-10T10:05:36.264Z,20584.00
2022-11-10T10:11:08.041Z,20432.00
2022-11-10T10:16:45.761Z,18345.00
2022-11-10T10:22:18.681Z,17874.00
2022-11-10T10:27:50.313Z,23276.00
2022-11-10T10:33:22.184Z,19576.00
2022-11-10T10:38:54.166Z,11560.00
2022-11-10T10:44:26.419Z,9711.00
2022-11-10T10:49:58.695Z,16079.00
2022-11-10T10:55:30.899Z,15735.00
2022-11-10T11:01:02.932Z,9318.00
2022-11-10T11:06:34.788Z,12112.00
2022-11-10T11:12:06.563Z,13968.00
2022-11-10T11:17:38.373Z,13791.00
2022-11-10T11:23:10.344Z,14857.00
2022-11-10T11:28:42.362Z,12846.00
2022-11-10T11:34:14.299Z,12655.00
2022-11-10T11:39:52.545Z,10649.00
2022-11-10T11:45:24.623Z,12308.00
2022-11-10T11:50:56.714Z,10434.00
2022-11-10T11:56:28.897Z,10138.00
2022-11-10T12:02:00.871Z,9412.00
2022-11-10T12:07:32.865Z,8994.00
2022-11-10T12:13:04.938Z,8626.00
2022-11-10T12:18:37.102Z,8532.00
2022-11-10T12:24:10.571Z,8635.00
2022-11-10T12:29:41.813Z,7142.00
2022-11-10T12:35:14.026Z,9130.00
2022-11-10T12:40:45.929Z,8938.00
2022-11-10T12:51:49.693Z,8028.00
2022-11-10T12:57:21.633Z,7902.00
2022-11-10T13:02:53.423Z,7809.00
2022-11-10T13:08:25.485Z,7587.00
2022-11-10T13:13:59.753Z,8036.00
2022-11-10T13:19:28.987Z,7235.00
2022-11-10T13:25:01.248Z,7282.00
2022-11-10T13:30:33.486Z,7036.00
2022-11-10T13:36:05.273Z,6922.00
2022-11-10T13:41:37.590Z,6389.00
2022-11-10T13:47:09.845Z,6205.00
2022-11-10T13:52:41.964Z,6058.00
2022-11-10T13:58:15.331Z,5981.00
2022-11-10T14:03:47.206Z,5861.00
2022-11-10T14:09:18.951Z,5679.00
2022-11-10T14:14:50.774Z,5543.00
2022-11-10T14:20:23.116Z,5450.00
2022-11-10T14:25:55.207Z,5357.00
2022-11-10T14:36:57.202Z,5412.00
2022-11-10T14:42:29.351Z,5007.00
2022-11-10T14:48:01.214Z,4568.00
2022-11-10T14:53:33.478Z,3958.00
2022-11-10T14:59:05.069Z,3756.00
2022-11-10T15:04:36.861Z,3583.00
2022-11-10T15:10:08.787Z,3469.00
2022-11-10T15:15:40.533Z,2960.00
2022-11-10T15:21:12.469Z,2512.00
2022-11-10T15:26:44.141Z,1801.00
2022-11-10T15:32:16.144Z,1294.00
2022-11-10T15:37:47.754Z,863.00
2022-11-10T15:43:19.780Z,619.00
2022-11-10T15:48:51.654Z,468.00
2022-11-10T15:54:23.162Z,275.00
2022-11-10T15:59:55.134Z,123.00
2022-11-10T16:05:28.855Z,37.00
2022-11-10T16:11:00.648Z,14.00
2022-11-10T16:16:32.628Z,6.00
2022-11-10T16:22:04.623Z,3.00
2022-11-10T16:27:36.671Z,4.00
2022-11-10T16:33:08.486Z,3.00
2022-11-10T16:38:40.365Z,3.00
2022-11-10T16:44:12.734Z,1.00
2022-11-10T16:49:44.992Z,3.00
2022-11-10T16:55:17.284Z,3.00
2022-11-10T17:00:49.029Z,2.00
2022-11-10T17:06:20.974Z,3.00
2022-11-10T17:11:52.886Z,3.00
2022-11-10T17:17:25.057Z,2.00
2022-11-10T17:22:57.152Z,2.00
2022-11-10T17:28:29.532Z,3.00
2022-11-10T17:34:01.732Z,3.00
2022-11-10T17:39:34.255Z,2.00
2022-11-10T17:45:06.078Z,3.00
2022-11-10T17:50:38.010Z,2.00
2022-11-10T17:56:09.765Z,11.00
2022-11-10T18:01:41.768Z,10.00
2022-11-10T18:07:13.657Z,10.00
2022-11-10T18:12:45.507Z,1.00
2022-11-10T18:18:17.431Z,2.00
2022-11-10T18:23:49.600Z,2.00
2022-11-10T18:29:21.609Z,2.00
2022-11-10T18:34:53.417Z,2.00
2022-11-10T18:40:25.368Z,2.00
2022-11-10T18:45:57.250Z,2.00
2022-11-10T18:51:29.293Z,2.00
2022-11-10T18:57:01.242Z,2.00
2022-11-10T19:02:33.074Z,2.00
2022-11-10T19:04:44.336Z,3.00
2022-11-10T19:10:16.270Z,3.00
2022-11-10T19:15:47.961Z,2.00
2022-11-10T19:21:19.778Z,3.00
2022-11-10T19:26:51.495Z,1.00
2022-11-10T19:32:24.938Z,2.00
2022-11-10T19:37:55.104Z,2.00
2022-11-10T19:43:26.636Z,2.00
2022-11-10T19:48:58.520Z,1.00
2022-11-10T19:54:30.072Z,2.00
2022-11-10T20:00:01.481Z,1.00
2022-11-10T20:05:33.203Z,2.00
2022-11-10T20:11:05.061Z,1.00
2022-11-10T20:16:36.957Z,2.00
2022-11-10T20:22:08.819Z,2.00
2022-11-10T20:27:40.303Z,2.00
2022-11-10T20:33:12.405Z,2.00
2022-11-10T20:38:44.253Z,2.00
2022-11-10T20:44:16.222Z,2.00
2022-11-10T20:49:47.991Z,2.00
2022-11-10T20:55:43.593Z,2.00
2022-11-10T21:00:51.542Z,2.00
2022-11-10T21:06:23.520Z,2.00
2022-11-10T21:11:55.138Z,2.00
2022-11-10T21:17:26.991Z,2.00
2022-11-10T21:23:03.164Z,1.00
2022-11-10T21:28:30.592Z,2.00
2022-11-10T21:34:02.003Z,2.00
2022-11-10T21:45:03.687Z,1.00
2022-11-10T21:52:56.770Z,2.00
2022-11-10T21:58:28.682Z,2.00
2022-11-10T22:04:00.440Z,1.00
2022-11-10T22:15:02.091Z,2.00
2022-11-10T22:20:34.004Z,2.00
2022-11-10T22:26:06.037Z,2.00
2022-11-10T22:31:38.151Z,1.00
2022-11-10T22:37:09.915Z,3.00
2022-11-10T22:42:41.590Z,1.00
2022-11-10T22:48:13.386Z,2.00
2022-11-10T22:53:45.071Z,2.00
2022-11-10T22:59:16.931Z,1.00
2022-11-10T23:04:48.510Z,1.00
2022-11-10T23:10:20.416Z,2.00
2022-11-10T23:15:52.297Z,3.00
2022-11-10T23:21:24.676Z,1.00
2022-11-10T23:26:56.235Z,2.00
2022-11-10T23:32:28.190Z,1.00
2022-11-10T23:37:59.790Z,1.00
2022-11-10T23:43:31.480Z,0.00
2022-11-10T23:49:03.396Z,0.00
2022-11-10T23:54:35.139Z,1.00
